Laprairie — VC9004 — position and weather

sailwx.info

Track history (hours):
 
Tides and Currents Weather Stations Pressure Air Temp Water Temp Dewpoint Dewpoint Depression Visibility Wind Speed Wind Dir Waves Ship Positions

Laprairie

Last reported at 2016-May-07 22:17 UTC. Time now 2016-May-27 20:06 UTC.
Position N 43°17' W 079°34'.
Warning: this ship's position is 19 days out of date.

Length 22 m; draft 3 m.

Type: Tug. MMSI: 316005239.

Date/timePositionNaut miles runAvg speedWind from/ knotsBaromVisibWave heightAir tempDewpointWater temp
2016-May-07 22:17N 43°17' W 079°34'7 9.8
2016-May-07 21:33N 43°16' W 079°24'8 8.4
2016-May-07 20:33N 43°14' W 079°13'1 0.9
2016-May-07 19:33N 43°13' W 079°13'0 0.1
2016-May-07 18:31N 43°13' W 079°13'0 0.1
2016-May-07 17:31N 43°13' W 079°13'0 0.0
2016-May-07 16:31N 43°13' W 079°13'0 0.0
2016-May-07 15:33N 43°13' W 079°13'1 0.8
2016-May-07 14:32N 43°14' W 079°13'0 0.0
2016-May-07 13:32N 43°14' W 079°13'0 0.0
2016-May-07 12:32N 43°14' W 079°13'1 0.5
2016-May-07 11:33N 43°14' W 079°13'8 7.8
2016-May-07 10:33N 43°17' W 079°23'  
2016-May-03 16:20N 43°17' W 079°51'1 0.8
2016-May-03 14:33N 43°17' W 079°49'  
Track history (hours):
 
Tides and Currents Weather Stations Pressure Air Temp Water Temp Dewpoint Dewpoint Depression Visibility Wind Speed Wind Dir Waves Ship Positions

Laprairie

Last reported at 2016-May-07 22:17 UTC. Time now 2016-May-27 20:06 UTC.
Position N 43°17' W 079°34'.
Warning: this ship's position is 19 days out of date.

Length 22 m; draft 3 m.

Type: Tug. MMSI: 316005239.

Date/timePositionNaut miles runAvg speedWind from/ knotsBaromVisibWave heightAir tempDewpointWater temp
2016-May-07 22:17N 43°17' W 079°34'7 9.8
2016-May-07 21:33N 43°16' W 079°24'8 8.4
2016-May-07 20:33N 43°14' W 079°13'1 0.9
2016-May-07 19:33N 43°13' W 079°13'0 0.1
2016-May-07 18:31N 43°13' W 079°13'0 0.1
2016-May-07 17:31N 43°13' W 079°13'0 0.0
2016-May-07 16:31N 43°13' W 079°13'0 0.0
2016-May-07 15:33N 43°13' W 079°13'1 0.8
2016-May-07 14:32N 43°14' W 079°13'0 0.0
2016-May-07 13:32N 43°14' W 079°13'0 0.0
2016-May-07 12:32N 43°14' W 079°13'1 0.5
2016-May-07 11:33N 43°14' W 079°13'8 7.8
2016-May-07 10:33N 43°17' W 079°23'  
2016-May-03 16:20N 43°17' W 079°51'1 0.8
2016-May-03 14:33N 43°17' W 079°49'  

Dump ship's entire track history